EWG1Z EDDB-EDDL
Flight info
| Callsign | EWG1Z |
|---|---|
| Flight time | 0h 52m |
| Altitude | 24000 |
| Route | SUKIP3K SUKIP Y206 BUREL/N0444F320 P203 HLZ L980 SAS DCT PIROT T851 DENOL/N0419F260 T851 HMM/N0407F240 T851 HALME HALME1A |
| Aircraft | A319/M-SDE3FGHIRWY/LB1 |
Departure
| Time | 2026-04-30 19:31 |
|---|---|
| Airport | Berlin Brandenburg Airport (EDDB) |
Arrival
| Time | 2026-04-30 20:24 |
|---|---|
| Airport | Düsseldorf Airport (EDDL) |
| Time | Latitude | Longitude | Altitude | Speed | Heading |
|---|---|---|---|---|---|
| 2026-04-30 19:03 | 52.36069 | 13.51047 | 158 ft | 0 kts | 339° |
| 2026-04-30 19:03 | 52.36062 | 13.51052 | 155 ft | 0 kts | 339° |
| 2026-04-30 19:21 | 52.36018 | 13.51079 | 155 ft | 4 kts | 337° |
| 2026-04-30 19:22 | 52.35991 | 13.51136 | 155 ft | 2 kts | 250° |
| 2026-04-30 19:22 | 52.35992 | 13.51139 | 154 ft | 0 kts | 249° |
| 2026-04-30 19:24 | 52.35991 | 13.51136 | 155 ft | 1 kts | 249° |
| 2026-04-30 19:24 | 52.35963 | 13.51015 | 154 ft | 9 kts | 249° |
| 2026-04-30 19:25 | 52.35836 | 13.50776 | 154 ft | 11 kts | 180° |
| 2026-04-30 19:26 | 52.35759 | 13.50564 | 154 ft | 13 kts | 249° |
| 2026-04-30 19:26 | 52.35680 | 13.50230 | 154 ft | 18 kts | 249° |
| 2026-04-30 19:26 | 52.35632 | 13.50029 | 154 ft | 18 kts | 248° |
| 2026-04-30 19:27 | 52.35553 | 13.49694 | 154 ft | 18 kts | 250° |
| 2026-04-30 19:27 | 52.35478 | 13.49376 | 154 ft | 10 kts | 248° |
| 2026-04-30 19:28 | 52.35449 | 13.49259 | 154 ft | 12 kts | 248° |
| 2026-04-30 19:28 | 52.35375 | 13.48949 | 154 ft | 17 kts | 249° |
| 2026-04-30 19:29 | 52.35287 | 13.48575 | 154 ft | 15 kts | 248° |
| 2026-04-30 19:29 | 52.35253 | 13.48471 | 154 ft | 7 kts | 212° |
| 2026-04-30 19:30 | 52.35097 | 13.48664 | 154 ft | 14 kts | 99° |
| 2026-04-30 19:30 | 52.35079 | 13.49037 | 158 ft | 19 kts | 85° |
| 2026-04-30 19:31 | 52.35249 | 13.49816 | 154 ft | 81 kts | 69° |
| 2026-04-30 19:31 | 52.35525 | 13.50971 | 155 ft | 135 kts | 69° |
| 2026-04-30 19:31 | 52.35740 | 13.54230 | 955 ft | 162 kts | 128° |
| 2026-04-30 19:32 | 52.34784 | 13.55163 | 1525 ft | 166 kts | 158° |
| 2026-04-30 19:32 | 52.33655 | 13.55751 | 1999 ft | 178 kts | 169° |
| 2026-04-30 19:32 | 52.32357 | 13.55496 | 2264 ft | 202 kts | 205° |
| 2026-04-30 19:32 | 52.31147 | 13.54099 | 2579 ft | 224 kts | 220° |
| 2026-04-30 19:33 | 52.29853 | 13.52406 | 2979 ft | 251 kts | 220° |
| 2026-04-30 19:33 | 52.28441 | 13.50567 | 3698 ft | 265 kts | 220° |
| 2026-04-30 19:33 | 52.27130 | 13.48413 | 4649 ft | 270 kts | 238° |
| 2026-04-30 19:33 | 52.26395 | 13.45600 | 5609 ft | 271 kts | 261° |
| 2026-04-30 19:34 | 52.26284 | 13.42549 | 6479 ft | 276 kts | 272° |
| 2026-04-30 19:34 | 52.26291 | 13.39363 | 7303 ft | 284 kts | 272° |
| 2026-04-30 19:34 | 52.26301 | 13.32759 | 8973 ft | 297 kts | 273° |
| 2026-04-30 19:35 | 52.26302 | 13.29356 | 9807 ft | 303 kts | 274° |
| 2026-04-30 19:35 | 52.26294 | 13.25876 | 10602 ft | 309 kts | 271° |
| 2026-04-30 19:35 | 52.25972 | 13.22313 | 11118 ft | 329 kts | 257° |
| 2026-04-30 19:35 | 52.25065 | 13.18728 | 11360 ft | 355 kts | 240° |
| 2026-04-30 19:36 | 52.23755 | 13.15266 | 11778 ft | 369 kts | 238° |
| 2026-04-30 19:36 | 52.22389 | 13.11664 | 12443 ft | 375 kts | 239° |
| 2026-04-30 19:36 | 52.19627 | 13.04287 | 13810 ft | 386 kts | 239° |
| 2026-04-30 19:37 | 52.18224 | 13.00524 | 14449 ft | 391 kts | 239° |
| 2026-04-30 19:37 | 52.16886 | 12.96631 | 15037 ft | 395 kts | 246° |
| 2026-04-30 19:37 | 52.15950 | 12.92416 | 15639 ft | 397 kts | 258° |
| 2026-04-30 19:37 | 52.15328 | 12.88010 | 16243 ft | 401 kts | 260° |
| 2026-04-30 19:38 | 52.14710 | 12.83564 | 16863 ft | 404 kts | 259° |
| 2026-04-30 19:38 | 52.14086 | 12.79076 | 17478 ft | 408 kts | 261° |
| 2026-04-30 19:38 | 52.13801 | 12.74548 | 18065 ft | 407 kts | 275° |
| 2026-04-30 19:38 | 52.14103 | 12.69995 | 18678 ft | 403 kts | 288° |
| 2026-04-30 19:39 | 52.14979 | 12.65691 | 19228 ft | 398 kts | 301° |
| 2026-04-30 19:39 | 52.16370 | 12.61829 | 19808 ft | 392 kts | 313° |
| 2026-04-30 19:39 | 52.18181 | 12.58561 | 20383 ft | 386 kts | 324° |
| 2026-04-30 19:39 | 52.20183 | 12.55623 | 20979 ft | 388 kts | 324° |
| 2026-04-30 19:40 | 52.22193 | 12.52663 | 21559 ft | 390 kts | 324° |
| 2026-04-30 19:40 | 52.24102 | 12.49460 | 22116 ft | 400 kts | 314° |
| 2026-04-30 19:40 | 52.25642 | 12.45608 | 22651 ft | 411 kts | 303° |
| 2026-04-30 19:40 | 52.26711 | 12.41244 | 23151 ft | 421 kts | 291° |
| 2026-04-30 19:41 | 52.27386 | 12.36603 | 23664 ft | 426 kts | 288° |
| 2026-04-30 19:41 | 52.28048 | 12.31871 | 24145 ft | 428 kts | 288° |
| 2026-04-30 19:41 | 52.28716 | 12.27113 | 24571 ft | 430 kts | 288° |
| 2026-04-30 19:41 | 52.29385 | 12.22338 | 25011 ft | 432 kts | 288° |
| 2026-04-30 19:42 | 52.30055 | 12.17531 | 25439 ft | 434 kts | 288° |
| 2026-04-30 19:42 | 52.30723 | 12.12706 | 25862 ft | 436 kts | 288° |
| 2026-04-30 19:42 | 52.31384 | 12.07918 | 26271 ft | 438 kts | 288° |
| 2026-04-30 19:42 | 52.32055 | 12.03047 | 26688 ft | 440 kts | 288° |
| 2026-04-30 19:43 | 52.32727 | 11.98158 | 27102 ft | 442 kts | 287° |
| 2026-04-30 19:43 | 52.33399 | 11.93236 | 27495 ft | 444 kts | 287° |
| 2026-04-30 19:43 | 52.34073 | 11.88290 | 27918 ft | 446 kts | 286° |
| 2026-04-30 19:44 | 52.34631 | 11.78062 | 28722 ft | 455 kts | 276° |
| 2026-04-30 19:44 | 52.34736 | 11.72870 | 29117 ft | 457 kts | 276° |
| 2026-04-30 19:44 | 52.34839 | 11.67646 | 29498 ft | 459 kts | 276° |
| 2026-04-30 19:44 | 52.34944 | 11.62399 | 29871 ft | 461 kts | 276° |
| 2026-04-30 19:45 | 52.35051 | 11.57200 | 30226 ft | 463 kts | 276° |
| 2026-04-30 19:45 | 52.35158 | 11.51923 | 30571 ft | 465 kts | 276° |
| 2026-04-30 19:45 | 52.35263 | 11.46602 | 30868 ft | 467 kts | 276° |
| 2026-04-30 19:45 | 52.35364 | 11.41279 | 31177 ft | 468 kts | 275° |
| 2026-04-30 19:46 | 52.35462 | 11.35943 | 31491 ft | 469 kts | 275° |
| 2026-04-30 19:46 | 52.35555 | 11.30601 | 31869 ft | 468 kts | 275° |
| 2026-04-30 19:46 | 52.35645 | 11.25273 | 32297 ft | 467 kts | 275° |
| 2026-04-30 19:46 | 52.35732 | 11.20039 | 32709 ft | 465 kts | 275° |
| 2026-04-30 19:47 | 52.35819 | 11.14746 | 33136 ft | 464 kts | 275° |
| 2026-04-30 19:47 | 52.35876 | 11.11252 | 33417 ft | 463 kts | 275° |
| 2026-04-30 19:47 | 52.35990 | 11.04199 | 33985 ft | 462 kts | 275° |
| 2026-04-30 19:47 | 52.36073 | 10.98953 | 34410 ft | 460 kts | 274° |
| 2026-04-30 19:48 | 52.36151 | 10.93716 | 34765 ft | 459 kts | 274° |
| 2026-04-30 19:48 | 52.36222 | 10.88499 | 35112 ft | 455 kts | 274° |
| 2026-04-30 19:48 | 52.36291 | 10.83399 | 34714 ft | 454 kts | 274° |
| 2026-04-30 19:48 | 52.36132 | 10.78224 | 34450 ft | 457 kts | 265° |
| 2026-04-30 19:49 | 52.35555 | 10.73082 | 34431 ft | 460 kts | 261° |
| 2026-04-30 19:49 | 52.33690 | 10.57649 | 34441 ft | 461 kts | 261° |
| 2026-04-30 19:50 | 52.32463 | 10.47403 | 34436 ft | 461 kts | 261° |
| 2026-04-30 19:50 | 52.31205 | 10.37129 | 34435 ft | 459 kts | 261° |
| 2026-04-30 19:51 | 52.29933 | 10.26890 | 34443 ft | 461 kts | 261° |
| 2026-04-30 19:51 | 52.28660 | 10.16720 | 34437 ft | 461 kts | 260° |
| 2026-04-30 19:52 | 52.27370 | 10.06454 | 34440 ft | 461 kts | 260° |
| 2026-04-30 19:52 | 52.26079 | 9.96257 | 34436 ft | 461 kts | 260° |
| 2026-04-30 19:53 | 52.24368 | 9.86165 | 34435 ft | 463 kts | 248° |
| 2026-04-30 19:53 | 52.21548 | 9.76708 | 34438 ft | 463 kts | 245° |
| 2026-04-30 19:54 | 52.18693 | 9.67294 | 34438 ft | 463 kts | 245° |
| 2026-04-30 19:54 | 52.15850 | 9.57937 | 34438 ft | 463 kts | 245° |
| 2026-04-30 19:55 | 52.12979 | 9.48530 | 34440 ft | 463 kts | 245° |
| 2026-04-30 19:55 | 52.10580 | 9.40705 | 34440 ft | 464 kts | 245° |
| 2026-04-30 19:56 | 52.07222 | 9.29779 | 34424 ft | 464 kts | 245° |
| 2026-04-30 19:56 | 52.05172 | 9.21726 | 34417 ft | 462 kts | 256° |
| 2026-04-30 19:57 | 52.03863 | 9.11539 | 34418 ft | 460 kts | 261° |
| 2026-04-30 19:57 | 52.02614 | 9.01329 | 34415 ft | 461 kts | 261° |
| 2026-04-30 19:58 | 52.01984 | 8.96238 | 34072 ft | 457 kts | 260° |
| 2026-04-30 19:58 | 52.01352 | 8.91179 | 33397 ft | 457 kts | 260° |
| 2026-04-30 19:58 | 52.00713 | 8.86106 | 32651 ft | 459 kts | 260° |
| 2026-04-30 19:58 | 52.00078 | 8.81076 | 31922 ft | 459 kts | 260° |
| 2026-04-30 19:59 | 51.99437 | 8.76021 | 31415 ft | 455 kts | 260° |
| 2026-04-30 19:59 | 51.98799 | 8.71015 | 30885 ft | 451 kts | 260° |
| 2026-04-30 19:59 | 51.97551 | 8.61175 | 29709 ft | 444 kts | 260° |
| 2026-04-30 20:00 | 51.96930 | 8.56283 | 29095 ft | 441 kts | 260° |
| 2026-04-30 20:00 | 51.96310 | 8.51414 | 28469 ft | 439 kts | 260° |
| 2026-04-30 20:00 | 51.95690 | 8.46579 | 27871 ft | 436 kts | 259° |
| 2026-04-30 20:00 | 51.95073 | 8.41775 | 27279 ft | 433 kts | 259° |
| 2026-04-30 20:01 | 51.93850 | 8.32326 | 26150 ft | 428 kts | 259° |
| 2026-04-30 20:01 | 51.93238 | 8.27620 | 25631 ft | 425 kts | 259° |
| 2026-04-30 20:01 | 51.92629 | 8.22939 | 25399 ft | 424 kts | 259° |
| 2026-04-30 20:02 | 51.91410 | 8.13578 | 25399 ft | 425 kts | 258° |
| 2026-04-30 20:02 | 51.90795 | 8.08897 | 25394 ft | 425 kts | 258° |
| 2026-04-30 20:03 | 51.89550 | 7.99528 | 25389 ft | 425 kts | 258° |
| 2026-04-30 20:03 | 51.88932 | 7.94901 | 25391 ft | 425 kts | 258° |
| 2026-04-30 20:03 | 51.88304 | 7.90217 | 25391 ft | 425 kts | 258° |
| 2026-04-30 20:03 | 51.87671 | 7.85538 | 25391 ft | 425 kts | 258° |
| 2026-04-30 20:04 | 51.87036 | 7.80857 | 25378 ft | 425 kts | 258° |
| 2026-04-30 20:04 | 51.86407 | 7.76200 | 25389 ft | 423 kts | 257° |
| 2026-04-30 20:04 | 51.85705 | 7.71568 | 25381 ft | 422 kts | 252° |
| 2026-04-30 20:05 | 51.83355 | 7.62938 | 25383 ft | 422 kts | 244° |
| 2026-04-30 20:05 | 51.82088 | 7.58665 | 25379 ft | 421 kts | 244° |
| 2026-04-30 20:05 | 51.79561 | 7.50153 | 24789 ft | 416 kts | 243° |
| 2026-04-30 20:06 | 51.78307 | 7.45942 | 24311 ft | 415 kts | 243° |
| 2026-04-30 20:06 | 51.77058 | 7.41755 | 23816 ft | 413 kts | 243° |
| 2026-04-30 20:06 | 51.75813 | 7.37581 | 23314 ft | 410 kts | 243° |
| 2026-04-30 20:06 | 51.74581 | 7.33462 | 22862 ft | 406 kts | 243° |
| 2026-04-30 20:07 | 51.73355 | 7.29376 | 22403 ft | 402 kts | 243° |
| 2026-04-30 20:07 | 51.72029 | 7.25446 | 21953 ft | 395 kts | 234° |
| 2026-04-30 20:07 | 51.68268 | 7.19325 | 21039 ft | 381 kts | 211° |
| 2026-04-30 20:08 | 51.65980 | 7.17280 | 20590 ft | 373 kts | 200° |
| 2026-04-30 20:08 | 51.63566 | 7.15791 | 20115 ft | 369 kts | 197° |
| 2026-04-30 20:08 | 51.61168 | 7.14343 | 19657 ft | 366 kts | 197° |
| 2026-04-30 20:08 | 51.58787 | 7.12896 | 19181 ft | 365 kts | 197° |
| 2026-04-30 20:09 | 51.56501 | 7.11104 | 18710 ft | 367 kts | 208° |
| 2026-04-30 20:09 | 51.54474 | 7.08653 | 18179 ft | 370 kts | 219° |
| 2026-04-30 20:09 | 51.51217 | 7.02252 | 17209 ft | 368 kts | 230° |
| 2026-04-30 20:10 | 51.48151 | 6.95733 | 16228 ft | 363 kts | 230° |
| 2026-04-30 20:10 | 51.46628 | 6.92520 | 15746 ft | 361 kts | 230° |
| 2026-04-30 20:10 | 51.45113 | 6.89324 | 15257 ft | 359 kts | 230° |
| 2026-04-30 20:11 | 51.42094 | 6.82967 | 14318 ft | 357 kts | 230° |
| 2026-04-30 20:11 | 51.40611 | 6.79846 | 13801 ft | 355 kts | 230° |
| 2026-04-30 20:11 | 51.39124 | 6.76711 | 13299 ft | 352 kts | 230° |
| 2026-04-30 20:12 | 51.36178 | 6.70504 | 12414 ft | 348 kts | 230° |
| 2026-04-30 20:12 | 51.34709 | 6.67415 | 12191 ft | 346 kts | 230° |
| 2026-04-30 20:12 | 51.33231 | 6.64317 | 11290 ft | 353 kts | 230° |
| 2026-04-30 20:13 | 51.31789 | 6.61288 | 10854 ft | 339 kts | 230° |
| 2026-04-30 20:13 | 51.30408 | 6.58385 | 10674 ft | 317 kts | 229° |
| 2026-04-30 20:13 | 51.29100 | 6.55649 | 10334 ft | 305 kts | 229° |
| 2026-04-30 20:13 | 51.27829 | 6.53005 | 10071 ft | 298 kts | 229° |
| 2026-04-30 20:14 | 51.26555 | 6.50366 | 9944 ft | 299 kts | 229° |
| 2026-04-30 20:14 | 51.25288 | 6.47735 | 9721 ft | 300 kts | 229° |
| 2026-04-30 20:14 | 51.24007 | 6.45077 | 9273 ft | 301 kts | 229° |
| 2026-04-30 20:14 | 51.22739 | 6.42444 | 8916 ft | 297 kts | 229° |
| 2026-04-30 20:15 | 51.21480 | 6.39834 | 8315 ft | 296 kts | 228° |
| 2026-04-30 20:15 | 51.20232 | 6.37255 | 8048 ft | 286 kts | 228° |
| 2026-04-30 20:15 | 51.19075 | 6.34849 | 7911 ft | 269 kts | 228° |
| 2026-04-30 20:15 | 51.17956 | 6.32519 | 7577 ft | 261 kts | 228° |
| 2026-04-30 20:16 | 51.16850 | 6.30259 | 7333 ft | 256 kts | 224° |
| 2026-04-30 20:16 | 51.15419 | 6.28669 | 6831 ft | 246 kts | 193° |
| 2026-04-30 20:16 | 51.13785 | 6.28370 | 6394 ft | 232 kts | 167° |
| 2026-04-30 20:16 | 51.12236 | 6.28984 | 5906 ft | 228 kts | 160° |
| 2026-04-30 20:17 | 51.10745 | 6.29714 | 5452 ft | 223 kts | 152° |
| 2026-04-30 20:17 | 51.09572 | 6.31220 | 5019 ft | 217 kts | 125° |
| 2026-04-30 20:17 | 51.09030 | 6.33422 | 4808 ft | 214 kts | 99° |
| 2026-04-30 20:17 | 51.09214 | 6.35776 | 4678 ft | 220 kts | 72° |
| 2026-04-30 20:18 | 51.10049 | 6.37857 | 4550 ft | 225 kts | 59° |
| 2026-04-30 20:18 | 51.10986 | 6.39847 | 4428 ft | 230 kts | 59° |
| 2026-04-30 20:18 | 51.12012 | 6.42006 | 4294 ft | 251 kts | 58° |
| 2026-04-30 20:18 | 51.13075 | 6.44197 | 4163 ft | 245 kts | 58° |
| 2026-04-30 20:19 | 51.14084 | 6.46273 | 3976 ft | 230 kts | 59° |
| 2026-04-30 20:19 | 51.14717 | 6.47583 | 3883 ft | 222 kts | 60° |
| 2026-04-30 20:19 | 51.15931 | 6.50106 | 3719 ft | 212 kts | 59° |
| 2026-04-30 20:19 | 51.16830 | 6.51977 | 3636 ft | 213 kts | 59° |
| 2026-04-30 20:20 | 51.17735 | 6.53861 | 3474 ft | 214 kts | 60° |
| 2026-04-30 20:20 | 51.18640 | 6.55742 | 3222 ft | 213 kts | 60° |
| 2026-04-30 20:20 | 51.19538 | 6.57609 | 2940 ft | 210 kts | 60° |
| 2026-04-30 20:20 | 51.20419 | 6.59441 | 2657 ft | 206 kts | 60° |
| 2026-04-30 20:21 | 51.21281 | 6.61235 | 2386 ft | 198 kts | 60° |
| 2026-04-30 20:21 | 51.22096 | 6.62929 | 2130 ft | 187 kts | 61° |
| 2026-04-30 20:21 | 51.22855 | 6.64510 | 1887 ft | 173 kts | 60° |
| 2026-04-30 20:21 | 51.23542 | 6.65941 | 1670 ft | 154 kts | 60° |
| 2026-04-30 20:22 | 51.24143 | 6.67192 | 1463 ft | 132 kts | 61° |
| 2026-04-30 20:22 | 51.24678 | 6.68314 | 1279 ft | 124 kts | 61° |
| 2026-04-30 20:22 | 51.25194 | 6.69397 | 1118 ft | 121 kts | 60° |
| 2026-04-30 20:22 | 51.25704 | 6.70468 | 949 ft | 123 kts | 59° |
| 2026-04-30 20:23 | 51.26221 | 6.71551 | 789 ft | 123 kts | 56° |
| 2026-04-30 20:23 | 51.26745 | 6.72650 | 635 ft | 125 kts | 55° |
| 2026-04-30 20:23 | 51.27270 | 6.73743 | 438 ft | 123 kts | 54° |
| 2026-04-30 20:23 | 51.27790 | 6.74820 | 289 ft | 122 kts | 55° |
| 2026-04-30 20:24 | 51.28301 | 6.75897 | 134 ft | 118 kts | 54° |
| 2026-04-30 20:24 | 51.28718 | 6.76787 | 127 ft | 78 kts | 52° |
| 2026-04-30 20:24 | 51.28941 | 6.77251 | 127 ft | 31 kts | 52° |
| 2026-04-30 20:24 | 51.29022 | 6.77465 | 129 ft | 22 kts | 78° |
| 2026-04-30 20:25 | 51.28913 | 6.77650 | 129 ft | 11 kts | 187° |
| 2026-04-30 20:25 | 51.28861 | 6.77558 | 127 ft | 13 kts | 233° |
| 2026-04-30 20:26 | 51.28732 | 6.77287 | 129 ft | 18 kts | 233° |
| 2026-04-30 20:26 | 51.28568 | 6.76941 | 129 ft | 21 kts | 232° |
| 2026-04-30 20:26 | 51.28505 | 6.76809 | 126 ft | 10 kts | 233° |
| 2026-04-30 20:27 | 51.28392 | 6.76843 | 125 ft | 9 kts | 141° |
| 2026-04-30 20:27 | 51.28250 | 6.76850 | 129 ft | 12 kts | 187° |
| 2026-04-30 20:28 | 51.28146 | 6.76826 | 129 ft | 3 kts | 214° |
| 2026-04-30 20:28 | 51.28155 | 6.76732 | 128 ft | 0 kts | 278° |
| 2026-04-30 20:29 | 51.28155 | 6.76730 | 128 ft | 0 kts | 277° |